Terminal Aerodrome Forecast
Issued by NWS

Home | Current Version | Previous Version | Text Only | Print | Product List | Glossary On
Versions: 1 2 3 4 5 6 7 8 9 10 11 12 13 14 15 16 17 18 19 20 21 22 23 24 25 26 27 28 29 30 31 32 33 34 35 36 37 38 39 40 41 42
000
FTUS41 KBOX 231139 AAB
TAFACK
TAF AMD
KACK 231139Z 2312/2412 02019G29KT 1SM -DZ BR VCSH OVC003
     FM231700 02018G28KT 2SM BR OVC005
     FM232200 02012G22KT 3SM BR BKN010
     FM240200 02011KT 6SM BR SCT005 BKN015
     FM240500 02010KT 3SM BR OVC003=

USA.gov is the U.S. government's official web portal to all federal, state and local government web resources and services.